createdAt,value
2018-10-11T00:01:24.893Z,14.40
2018-10-11T00:03:53.683Z,14.30
2018-10-11T00:06:22.013Z,14.30
2018-10-11T00:08:50.497Z,14.30
2018-10-11T00:11:18.762Z,14.20
2018-10-11T00:13:47.245Z,14.20
2018-10-11T00:16:15.503Z,14.20
2018-10-11T00:18:44.099Z,14.20
2018-10-11T00:21:12.339Z,14.10
2018-10-11T00:23:41.251Z,14.20
2018-10-11T00:26:09.570Z,14.10
2018-10-11T00:28:37.890Z,14.10
2018-10-11T00:31:06.156Z,14.10
2018-10-11T00:33:34.413Z,14.10
2018-10-11T00:36:03.387Z,14.10
2018-10-11T00:38:31.750Z,14.10
2018-10-11T00:41:00.283Z,14.10
2018-10-11T00:43:28.754Z,14.10
2018-10-11T00:45:57.334Z,14.10
2018-10-11T00:48:25.626Z,14.10
2018-10-11T00:50:53.878Z,14.10
2018-10-11T00:53:22.148Z,14.10
2018-10-11T00:55:50.394Z,14.10
2018-10-11T00:58:18.625Z,14.10
2018-10-11T01:00:46.874Z,14.10
2018-10-11T01:03:15.108Z,14.10
2018-10-11T01:05:43.403Z,14.00
2018-10-11T01:08:11.621Z,14.00
2018-10-11T01:10:39.929Z,14.00
2018-10-11T01:13:08.185Z,13.90
2018-10-11T01:15:36.451Z,13.90
2018-10-11T01:18:04.731Z,13.90
2018-10-11T01:20:33.105Z,13.90
2018-10-11T01:23:01.358Z,13.90
2018-10-11T01:25:30.690Z,13.90
2018-10-11T01:27:58.974Z,13.90
2018-10-11T01:30:27.256Z,13.90
2018-10-11T01:32:55.521Z,13.90
2018-10-11T01:35:24.634Z,13.80
2018-10-11T01:37:52.885Z,13.80
2018-10-11T01:40:21.212Z,13.80
2018-10-11T01:43:01.502Z,13.80
2018-10-11T01:45:29.737Z,13.80
2018-10-11T01:47:58.341Z,13.80
2018-10-11T01:50:26.696Z,13.80
2018-10-11T01:52:55.642Z,13.80
2018-10-11T01:55:24.293Z,13.70
2018-10-11T01:57:52.544Z,13.70
2018-10-11T02:00:20.805Z,13.70
2018-10-11T02:03:02.422Z,13.70
2018-10-11T02:05:38.462Z,13.70
2018-10-11T02:08:07.054Z,13.60
2018-10-11T02:10:35.382Z,13.60
2018-10-11T02:13:04.114Z,13.60
2018-10-11T02:15:32.401Z,13.50
2018-10-11T02:18:01.326Z,13.50
2018-10-11T02:20:29.685Z,13.50
2018-10-11T02:22:58.181Z,13.50
2018-10-11T02:25:26.419Z,13.50
2018-10-11T02:27:54.682Z,13.50
2018-10-11T02:30:22.954Z,13.50
2018-10-11T02:32:51.292Z,13.50
2018-10-11T02:35:19.559Z,13.40
2018-10-11T02:37:48.080Z,13.40
2018-10-11T02:40:16.312Z,13.40
2018-10-11T02:42:44.561Z,13.40
2018-10-11T02:45:12.843Z,13.40
2018-10-11T02:47:41.231Z,13.40
2018-10-11T02:50:09.569Z,13.40
2018-10-11T02:52:37.838Z,13.40
2018-10-11T02:55:06.154Z,13.30
2018-10-11T02:57:45.606Z,13.30
2018-10-11T03:00:13.862Z,13.30
2018-10-11T03:02:43.953Z,13.30
2018-10-11T03:05:14.143Z,13.30
2018-10-11T03:07:42.892Z,13.30
2018-10-11T03:10:11.186Z,13.20
2018-10-11T03:12:39.458Z,13.20
2018-10-11T03:15:07.939Z,13.20
2018-10-11T03:17:36.345Z,13.20
2018-10-11T03:20:05.183Z,13.20
2018-10-11T03:22:33.417Z,13.20
2018-10-11T03:25:01.687Z,13.10
2018-10-11T03:27:30.027Z,13.10
2018-10-11T03:29:58.302Z,13.10
2018-10-11T03:32:26.566Z,13.10
2018-10-11T03:34:55.159Z,13.10
2018-10-11T03:37:23.450Z,13.20
2018-10-11T03:39:51.736Z,13.20
2018-10-11T03:42:20.671Z,13.20
2018-10-11T03:44:48.927Z,13.30
2018-10-11T03:47:17.560Z,13.30
2018-10-11T03:50:05.860Z,13.30
2018-10-11T03:52:34.749Z,13.30
2018-10-11T03:55:03.056Z,13.40
2018-10-11T03:57:31.303Z,13.40
2018-10-11T04:00:32.629Z,13.40
2018-10-11T04:03:08.220Z,13.50
2018-10-11T04:05:36.867Z,13.50
2018-10-11T04:08:05.713Z,13.50
2018-10-11T04:10:33.947Z,13.60
2018-10-11T04:13:02.220Z,13.60
2018-10-11T04:15:30.531Z,13.70
2018-10-11T04:17:58.799Z,13.70
2018-10-11T04:20:27.029Z,13.70
2018-10-11T04:22:55.269Z,13.70
2018-10-11T04:25:23.891Z,13.80
2018-10-11T04:27:52.188Z,13.80
2018-10-11T04:30:20.444Z,13.80
2018-10-11T04:32:48.698Z,13.80
2018-10-11T04:35:17.524Z,13.80
2018-10-11T04:37:45.875Z,13.80
2018-10-11T04:40:14.143Z,13.80
2018-10-11T04:42:42.446Z,13.80
2018-10-11T04:45:11.199Z,13.80
2018-10-11T04:47:39.546Z,13.80
2018-10-11T04:50:08.185Z,13.90
2018-10-11T04:52:36.498Z,13.80
2018-10-11T04:55:08.032Z,13.80
2018-10-11T04:57:36.504Z,13.80
2018-10-11T05:00:04.781Z,13.70
2018-10-11T05:02:33.104Z,13.70
2018-10-11T05:05:01.438Z,13.70
2018-10-11T05:07:29.795Z,13.70
2018-10-11T05:09:58.078Z,13.70
2018-10-11T05:12:27.271Z,13.70
2018-10-11T05:14:55.637Z,13.70
2018-10-11T05:17:26.495Z,13.60
2018-10-11T05:19:55.168Z,13.70
2018-10-11T05:22:27.490Z,13.70
2018-10-11T05:25:03.881Z,13.70
2018-10-11T05:27:33.631Z,13.70
2018-10-11T05:30:02.036Z,13.70
2018-10-11T05:32:30.894Z,13.70
2018-10-11T05:35:00.914Z,13.70
2018-10-11T05:37:29.441Z,13.70
2018-10-11T05:39:58.890Z,13.70
2018-10-11T05:42:27.400Z,13.70
2018-10-11T05:45:11.639Z,13.70
2018-10-11T05:51:06.814Z,13.70
2018-10-11T05:53:35.122Z,13.70
2018-10-11T05:56:03.381Z,13.80
2018-10-11T05:58:31.645Z,13.80
2018-10-11T06:00:59.907Z,13.80
2018-10-11T06:03:28.232Z,13.70
2018-10-11T06:05:56.495Z,13.80
2018-10-11T06:08:24.767Z,13.70
2018-10-11T06:10:53.041Z,13.80
2018-10-11T06:13:21.339Z,13.80
2018-10-11T06:15:49.604Z,13.80
2018-10-11T06:18:17.922Z,13.80
2018-10-11T06:20:46.163Z,13.80
2018-10-11T06:23:14.412Z,13.90
2018-10-11T06:25:42.707Z,13.90
2018-10-11T06:28:10.955Z,14.00
2018-10-11T06:30:39.225Z,14.00
2018-10-11T06:33:07.485Z,14.10
2018-10-11T06:35:36.197Z,14.10
2018-10-11T06:38:04.488Z,14.20
2018-10-11T06:40:33.794Z,14.30
2018-10-11T06:43:02.058Z,14.40
2018-10-11T06:45:30.308Z,14.60
2018-10-11T06:48:01.086Z,14.70
2018-10-11T06:50:29.456Z,14.80
2018-10-11T06:52:57.687Z,14.80
2018-10-11T06:55:25.981Z,15.00
2018-10-11T06:57:54.247Z,15.10
2018-10-11T07:00:22.511Z,15.20
2018-10-11T07:02:50.818Z,15.30
2018-10-11T07:05:19.046Z,15.30
2018-10-11T07:07:47.313Z,15.40
2018-10-11T07:10:15.741Z,15.50
2018-10-11T07:12:44.231Z,15.50
2018-10-11T07:15:12.632Z,15.70
2018-10-11T07:17:40.891Z,15.70
2018-10-11T07:20:09.222Z,15.80
2018-10-11T07:22:37.474Z,15.80
2018-10-11T07:25:05.741Z,15.90
2018-10-11T07:27:33.982Z,16.00
2018-10-11T07:30:02.293Z,16.10
2018-10-11T07:32:30.527Z,16.20
2018-10-11T07:34:58.830Z,16.30
2018-10-11T07:37:27.191Z,16.30
2018-10-11T07:39:55.752Z,16.40
2018-10-11T07:42:23.994Z,16.50
2018-10-11T07:44:52.266Z,16.60
2018-10-11T07:47:20.534Z,16.70
2018-10-11T07:49:48.797Z,16.70
2018-10-11T07:52:17.081Z,16.80
2018-10-11T07:54:45.455Z,16.80
2018-10-11T07:57:13.725Z,16.90
2018-10-11T07:59:41.967Z,16.90
2018-10-11T08:02:10.193Z,16.90
2018-10-11T08:04:38.814Z,16.90
2018-10-11T08:07:07.671Z,16.90
2018-10-11T08:09:35.930Z,16.90
2018-10-11T08:12:04.436Z,16.90
2018-10-11T08:14:32.494Z,16.90
2018-10-11T08:17:00.905Z,16.90
2018-10-11T08:19:29.639Z,16.90
2018-10-11T08:21:57.614Z,16.90
2018-10-11T08:24:25.973Z,17.00
2018-10-11T08:26:54.352Z,17.00
2018-10-11T08:29:22.427Z,17.00
2018-10-11T08:31:50.683Z,17.10
2018-10-11T08:34:18.915Z,17.10
2018-10-11T08:36:47.148Z,17.20
2018-10-11T08:39:15.402Z,17.40
2018-10-11T08:41:43.664Z,17.50
2018-10-11T08:44:13.463Z,17.60
2018-10-11T08:46:41.974Z,17.80
2018-10-11T08:49:10.306Z,17.90
2018-10-11T08:51:38.527Z,18.10
2018-10-11T08:54:12.158Z,18.20
2018-10-11T08:56:40.385Z,18.30
2018-10-11T08:59:08.884Z,18.40
2018-10-11T09:01:37.063Z,18.50
2018-10-11T09:04:05.468Z,18.50
2018-10-11T09:06:33.570Z,18.60
2018-10-11T09:09:01.824Z,18.70
2018-10-11T09:11:30.088Z,18.80
2018-10-11T09:13:58.591Z,18.90
2018-10-11T09:16:26.637Z,19.00
2018-10-11T09:18:54.871Z,19.10
2018-10-11T09:21:23.104Z,19.20
2018-10-11T09:23:51.349Z,19.20
2018-10-11T09:26:19.563Z,19.30
2018-10-11T09:28:47.814Z,19.30
2018-10-11T09:31:16.474Z,19.40
2018-10-11T09:33:44.689Z,19.50
2018-10-11T09:36:12.931Z,19.60
2018-10-11T09:38:41.192Z,19.60
2018-10-11T09:41:09.438Z,19.60
2018-10-11T09:43:37.706Z,19.60
2018-10-11T09:46:05.986Z,19.50
2018-10-11T09:48:34.236Z,19.50
2018-10-11T09:51:02.453Z,19.50
2018-10-11T09:53:30.967Z,19.60
2018-10-11T09:55:59.336Z,19.70
2018-10-11T09:58:27.651Z,19.70
2018-10-11T10:01:58.567Z,19.70
2018-10-11T10:04:26.810Z,19.70
2018-10-11T10:06:55.045Z,19.70
2018-10-11T10:09:23.322Z,19.80
2018-10-11T10:11:51.578Z,19.80
2018-10-11T10:14:19.833Z,19.90
2018-10-11T10:16:48.069Z,20.00
2018-10-11T10:19:16.606Z,20.10
2018-10-11T10:21:44.973Z,20.10
2018-10-11T10:24:13.126Z,20.10
2018-10-11T10:26:41.433Z,20.10
2018-10-11T10:29:09.713Z,20.10
2018-10-11T10:31:37.956Z,20.10
2018-10-11T10:34:06.284Z,20.00
2018-10-11T10:36:34.459Z,20.00
2018-10-11T10:39:02.817Z,20.20
2018-10-11T10:41:31.192Z,20.30
2018-10-11T10:43:59.448Z,20.30
2018-10-11T10:46:27.854Z,20.40
2018-10-11T10:48:56.458Z,20.50
2018-10-11T10:51:24.685Z,20.50
2018-10-11T10:53:52.963Z,20.50
2018-10-11T10:56:21.217Z,20.60
2018-10-11T10:58:49.492Z,20.50
2018-10-11T11:01:17.738Z,20.50
2018-10-11T11:03:45.986Z,20.50
2018-10-11T11:06:14.217Z,20.50
2018-10-11T11:08:42.521Z,20.60
2018-10-11T11:11:10.983Z,20.50
2018-10-11T11:13:39.277Z,20.50
2018-10-11T11:16:07.670Z,20.60
2018-10-11T11:18:35.972Z,20.70
2018-10-11T11:21:04.210Z,20.80
2018-10-11T11:23:32.457Z,20.90
2018-10-11T11:26:00.679Z,21.00
2018-10-11T11:28:28.901Z,21.00
2018-10-11T11:30:57.194Z,21.00
2018-10-11T11:33:25.400Z,21.00
2018-10-11T11:35:53.643Z,21.00
2018-10-11T11:38:21.904Z,21.00
2018-10-11T11:40:50.222Z,20.90
2018-10-11T11:43:18.458Z,20.90
2018-10-11T11:45:46.752Z,20.90
2018-10-11T11:48:14.949Z,20.90
2018-10-11T11:50:43.203Z,20.90
2018-10-11T11:53:11.697Z,20.90
2018-10-11T11:55:39.866Z,20.90
2018-10-11T11:58:08.187Z,20.90
2018-10-11T12:00:36.367Z,21.00
2018-10-11T12:03:04.718Z,21.00
2018-10-11T12:05:32.949Z,21.00
2018-10-11T12:08:01.441Z,21.00
2018-10-11T12:10:29.736Z,21.00
2018-10-11T12:12:59.068Z,21.00
2018-10-11T12:15:28.785Z,21.10
2018-10-11T12:17:58.449Z,21.10
2018-10-11T12:20:27.962Z,21.10
2018-10-11T12:22:57.861Z,21.10
2018-10-11T12:25:26.561Z,21.10
2018-10-11T12:27:54.796Z,21.10
2018-10-11T12:30:23.018Z,21.10
2018-10-11T12:32:51.245Z,21.20
2018-10-11T12:35:20.757Z,21.20
2018-10-11T12:37:49.032Z,21.20
2018-10-11T12:40:17.511Z,21.20
2018-10-11T12:42:45.758Z,21.30
2018-10-11T12:45:14.927Z,21.30
2018-10-11T12:47:43.142Z,21.30
2018-10-11T12:50:12.284Z,21.30
2018-10-11T12:52:40.735Z,21.30
2018-10-11T12:55:09.283Z,21.40
2018-10-11T12:57:38.052Z,21.50
2018-10-11T13:00:07.929Z,21.50
2018-10-11T13:02:36.235Z,21.60
2018-10-11T13:05:04.573Z,21.60
2018-10-11T13:07:32.816Z,21.60
2018-10-11T13:10:01.658Z,21.60
2018-10-11T13:12:30.004Z,21.60
2018-10-11T13:14:58.568Z,21.70
2018-10-11T13:17:27.038Z,21.70
2018-10-11T13:19:55.510Z,21.70
2018-10-11T13:22:23.765Z,21.70
2018-10-11T13:24:52.005Z,21.70
2018-10-11T13:27:20.274Z,21.80
2018-10-11T13:29:48.778Z,21.80
2018-10-11T13:32:17.057Z,21.80
2018-10-11T13:34:45.417Z,21.90
2018-10-11T13:37:13.588Z,21.90
2018-10-11T13:39:46.081Z,21.90
2018-10-11T13:42:10.099Z,22.00
2018-10-11T13:44:38.350Z,22.00
2018-10-11T13:47:06.651Z,22.00
2018-10-11T13:49:34.898Z,22.00
2018-10-11T13:52:03.159Z,22.00
2018-10-11T13:54:31.440Z,22.00
2018-10-11T13:57:02.233Z,22.00
2018-10-11T13:59:28.329Z,22.00
2018-10-11T14:01:56.576Z,22.00
2018-10-11T14:04:25.399Z,22.00
2018-10-11T14:06:53.592Z,22.00
2018-10-11T14:09:21.830Z,22.00
2018-10-11T14:11:50.127Z,22.00
2018-10-11T14:14:18.354Z,22.00
2018-10-11T14:16:46.609Z,22.40
2018-10-11T14:19:14.852Z,22.30
2018-10-11T14:21:43.107Z,22.20
2018-10-11T14:24:11.428Z,22.20
2018-10-11T14:26:39.617Z,22.10
2018-10-11T14:29:07.859Z,22.10
2018-10-11T14:31:36.100Z,22.10
2018-10-11T14:34:04.366Z,22.00
2018-10-11T14:36:32.619Z,22.30
2018-10-11T14:39:00.870Z,22.60
2018-10-11T14:41:29.165Z,22.40
2018-10-11T14:43:57.395Z,22.30
2018-10-11T14:46:25.926Z,22.20
2018-10-11T14:48:54.688Z,22.20
2018-10-11T14:51:22.962Z,22.10
2018-10-11T14:53:53.993Z,22.10
2018-10-11T14:56:19.472Z,22.10
2018-10-11T14:58:47.702Z,22.10
2018-10-11T15:01:15.995Z,22.00
2018-10-11T15:03:44.252Z,22.00
2018-10-11T15:06:12.556Z,21.90
2018-10-11T15:08:40.808Z,22.00
2018-10-11T15:11:09.131Z,22.00
2018-10-11T15:13:37.464Z,22.00
2018-10-11T15:16:05.759Z,22.00
2018-10-11T15:18:34.189Z,21.90
2018-10-11T15:21:02.498Z,21.90
2018-10-11T15:23:30.844Z,21.90
2018-10-11T15:25:59.151Z,21.80
2018-10-11T15:28:27.474Z,21.70
2018-10-11T15:30:55.789Z,21.70
2018-10-11T15:33:24.075Z,21.70
2018-10-11T15:35:55.092Z,21.70
2018-10-11T15:38:23.354Z,21.70
2018-10-11T15:40:51.627Z,21.60
2018-10-11T15:43:20.037Z,21.60
2018-10-11T15:45:48.310Z,21.60
2018-10-11T15:48:16.734Z,21.60
2018-10-11T15:50:45.014Z,21.60
2018-10-11T15:53:14.201Z,21.50
2018-10-11T15:55:42.717Z,21.40
2018-10-11T15:58:11.007Z,21.30
2018-10-11T16:00:39.234Z,21.30
2018-10-11T16:03:07.641Z,21.30
2018-10-11T16:05:35.962Z,21.20
2018-10-11T16:08:04.164Z,21.20
2018-10-11T16:10:32.427Z,21.10
2018-10-11T16:13:00.750Z,21.10
2018-10-11T16:15:29.005Z,21.00
2018-10-11T16:17:57.289Z,20.90
2018-10-11T16:20:25.524Z,20.80
2018-10-11T16:22:53.779Z,20.70
2018-10-11T16:25:22.050Z,20.70
2018-10-11T16:27:50.363Z,20.60
2018-10-11T16:30:18.827Z,20.50
2018-10-11T16:32:47.086Z,20.40
2018-10-11T16:35:15.350Z,20.30
2018-10-11T16:37:43.584Z,20.30
2018-10-11T16:40:11.859Z,20.20
2018-10-11T16:42:40.101Z,20.10
2018-10-11T16:45:08.396Z,20.00
2018-10-11T16:47:36.764Z,20.00
2018-10-11T16:50:05.141Z,19.90
2018-10-11T16:52:33.703Z,19.80
2018-10-11T16:55:02.167Z,19.70
2018-10-11T16:57:30.400Z,19.70
2018-10-11T16:59:58.657Z,19.70
2018-10-11T17:02:26.962Z,19.60
2018-10-11T17:04:55.227Z,19.50
2018-10-11T17:07:23.935Z,19.50
2018-10-11T17:09:52.211Z,19.40
2018-10-11T17:12:20.531Z,19.30
2018-10-11T17:14:48.788Z,19.20
2018-10-11T17:17:17.040Z,19.10
2018-10-11T17:19:45.276Z,19.10
2018-10-11T17:22:13.510Z,19.00
2018-10-11T17:24:41.755Z,19.00
2018-10-11T17:27:09.999Z,18.90
2018-10-11T17:29:38.270Z,18.90
2018-10-11T17:32:07.041Z,18.80
2018-10-11T17:34:35.408Z,18.70
2018-10-11T17:37:04.058Z,18.70
2018-10-11T17:39:32.690Z,18.60
2018-10-11T17:42:00.977Z,18.60
2018-10-11T17:44:29.237Z,18.50
2018-10-11T17:46:57.496Z,18.50
2018-10-11T17:49:25.750Z,18.40
2018-10-11T17:51:54.093Z,18.40
2018-10-11T17:54:22.342Z,18.30
2018-10-11T17:56:50.692Z,18.30
2018-10-11T17:59:18.853Z,18.20
2018-10-11T18:01:47.574Z,18.20
2018-10-11T18:04:15.865Z,18.20
2018-10-11T18:06:44.084Z,18.20
2018-10-11T18:09:12.770Z,18.10
2018-10-11T18:11:41.006Z,18.10
2018-10-11T18:14:10.537Z,18.10
2018-10-11T18:16:38.807Z,18.00
2018-10-11T18:19:07.057Z,18.00
2018-10-11T18:21:35.520Z,17.90
2018-10-11T18:24:04.706Z,17.90
2018-10-11T18:26:34.960Z,17.90
2018-10-11T18:29:03.267Z,17.90
2018-10-11T18:31:31.667Z,17.90
2018-10-11T18:33:59.925Z,17.90
2018-10-11T18:36:28.199Z,17.90
2018-10-11T18:38:56.634Z,17.80
2018-10-11T18:41:24.998Z,17.80
2018-10-11T18:43:53.249Z,17.80
2018-10-11T18:46:21.477Z,17.80
2018-10-11T18:48:49.807Z,17.70
2018-10-11T18:51:18.139Z,17.70
2018-10-11T18:53:46.410Z,17.70
2018-10-11T18:56:14.674Z,17.70
2018-10-11T18:58:42.919Z,17.60
2018-10-11T19:01:11.288Z,17.60
2018-10-11T19:03:39.585Z,17.60
2018-10-11T19:06:07.869Z,17.60
2018-10-11T19:08:36.213Z,17.50
2018-10-11T19:11:04.489Z,17.50
2018-10-11T19:13:32.854Z,17.50
2018-10-11T19:16:02.146Z,17.50
2018-10-11T19:18:31.558Z,17.50
2018-10-11T19:20:59.912Z,17.50
2018-10-11T19:23:29.024Z,17.50
2018-10-11T19:25:57.291Z,17.40
2018-10-11T19:28:25.618Z,17.50
2018-10-11T19:30:54.159Z,17.50
2018-10-11T19:33:22.398Z,17.50
2018-10-11T19:35:51.033Z,17.40
2018-10-11T19:38:19.710Z,17.40
2018-10-11T19:40:48.026Z,17.40
2018-10-11T19:43:16.365Z,17.30
2018-10-11T19:45:44.748Z,17.20
2018-10-11T19:48:13.110Z,17.20
2018-10-11T19:50:41.360Z,17.20
2018-10-11T19:53:09.687Z,17.10
2018-10-11T19:55:37.976Z,17.10
2018-10-11T19:58:06.662Z,17.10
2018-10-11T20:00:34.970Z,17.10
2018-10-11T20:03:03.526Z,17.10
2018-10-11T20:05:31.821Z,17.10
2018-10-11T20:08:00.290Z,17.10
2018-10-11T20:10:28.558Z,17.00
2018-10-11T20:12:56.850Z,17.00
2018-10-11T20:15:25.178Z,17.00
2018-10-11T20:17:53.643Z,17.00
2018-10-11T20:20:21.945Z,16.90
2018-10-11T20:22:50.289Z,16.90
2018-10-11T20:25:18.626Z,16.90
2018-10-11T20:27:46.899Z,16.90
2018-10-11T20:30:15.234Z,16.90
2018-10-11T20:32:43.577Z,16.90
2018-10-11T20:35:11.890Z,16.90
2018-10-11T20:37:40.157Z,16.90
2018-10-11T20:40:08.413Z,16.90
2018-10-11T20:42:36.734Z,17.00
2018-10-11T20:45:05.190Z,16.90
2018-10-11T20:47:33.431Z,16.90
2018-10-11T20:50:02.203Z,16.90
2018-10-11T20:52:30.477Z,16.90
2018-10-11T20:54:58.792Z,16.90
2018-10-11T20:57:27.207Z,16.90
2018-10-11T20:59:55.429Z,16.90
2018-10-11T21:02:23.710Z,16.90
2018-10-11T21:04:52.032Z,16.90
2018-10-11T21:07:47.427Z,16.90
2018-10-11T21:10:49.431Z,16.90
2018-10-11T21:13:17.682Z,16.90
2018-10-11T21:15:45.982Z,17.00
2018-10-11T21:18:14.333Z,17.10
2018-10-11T21:20:42.588Z,17.10
2018-10-11T21:23:10.972Z,17.20
2018-10-11T21:25:39.237Z,17.20
2018-10-11T21:28:07.663Z,17.20
2018-10-11T21:30:35.923Z,17.10
2018-10-11T21:33:04.208Z,17.10
2018-10-11T21:35:32.516Z,17.10
2018-10-11T21:38:00.936Z,17.20
2018-10-11T21:40:29.183Z,17.20
2018-10-11T21:42:57.461Z,17.20
2018-10-11T21:45:25.781Z,17.20
2018-10-11T21:47:54.041Z,17.20
2018-10-11T21:50:22.316Z,17.30
2018-10-11T21:52:50.676Z,17.40
2018-10-11T21:55:18.845Z,17.30
2018-10-11T21:57:47.095Z,17.40
2018-10-11T22:00:15.381Z,17.40
2018-10-11T22:02:43.654Z,17.40
2018-10-11T22:05:11.937Z,17.50
2018-10-11T22:07:40.193Z,17.50
2018-10-11T22:10:08.448Z,17.50
2018-10-11T22:12:36.667Z,17.50
2018-10-11T22:15:05.357Z,17.50
2018-10-11T22:17:33.428Z,17.60
2018-10-11T22:20:01.684Z,17.50
2018-10-11T22:22:31.224Z,17.60
2018-10-11T22:24:59.466Z,17.60
2018-10-11T22:27:27.782Z,17.60
2018-10-11T22:29:56.052Z,17.60
2018-10-11T22:32:24.304Z,17.70
2018-10-11T22:34:52.595Z,17.60
2018-10-11T22:37:20.888Z,17.70
2018-10-11T22:39:49.115Z,17.60
2018-10-11T22:42:17.372Z,17.60
2018-10-11T22:44:45.660Z,17.60
2018-10-11T22:47:13.902Z,17.60
2018-10-11T22:49:42.158Z,17.60
2018-10-11T22:52:10.415Z,17.70
2018-10-11T22:54:38.645Z,17.60
2018-10-11T22:57:06.966Z,17.60
2018-10-11T22:59:35.260Z,17.60
2018-10-11T23:02:03.498Z,17.60
2018-10-11T23:04:31.758Z,17.60
2018-10-11T23:07:00.446Z,17.60
2018-10-11T23:09:28.815Z,17.60
2018-10-11T23:11:57.080Z,17.60
2018-10-11T23:14:25.767Z,17.60
2018-10-11T23:16:53.970Z,17.70
2018-10-11T23:19:22.243Z,17.80
2018-10-11T23:21:50.515Z,17.80
2018-10-11T23:24:18.802Z,17.70
2018-10-11T23:26:47.053Z,17.70
2018-10-11T23:29:15.744Z,17.60
2018-10-11T23:31:43.965Z,17.50
2018-10-11T23:34:12.198Z,17.40
2018-10-11T23:36:40.744Z,17.40
2018-10-11T23:39:10.561Z,17.30
2018-10-11T23:41:38.869Z,17.30
2018-10-11T23:44:07.154Z,17.30
2018-10-11T23:46:35.389Z,17.30
2018-10-11T23:49:03.612Z,17.30
2018-10-11T23:51:32.292Z,17.20
2018-10-11T23:54:07.218Z,17.20
2018-10-11T23:56:35.504Z,17.20
2018-10-11T23:59:03.746Z,17.20
